Sign-in with your pilot id or email, or register

ICAO: ETNL Name / Country: Laage / Germany
Latitude: 53.9167 Longitude: 12.2667
Total Arrivals:
Strict Standards: Non-static method AirportData::getarrflights() should not be called statically, assuming $this from incompatible context in /var/www/customers/vh-7192/web/home/phpvms/core/templates/airport_info.tpl on line 18
0
Total Departures:
Strict Standards: Non-static method AirportData::getdeptflights() should not be called statically, assuming $this from incompatible context in /var/www/customers/vh-7192/web/home/phpvms/core/templates/airport_info.tpl on line 21
1
Latest Arrival: (-) Latest Departure: MTA5PM (ETNL-LOWS) Tibor Berces
Metar: ETNL 171720Z 12002KT 9999 FEW041 SCT200 M02/M04 Q1021 BLU+
More info

Charts for ETNL


NOTAM


Warning: file_get_contents(http://api.vateud.net/notams/ETNL.json): failed to open stream: HTTP request failed! HTTP/1.1 404 Not Found in /var/www/customers/vh-7192/web/home/phpvms/core/common/NOTAMSData.class.php on line 18

Warning: Invalid argument supplied for foreach() in /var/www/customers/vh-7192/web/home/phpvms/core/common/NOTAMSData.class.php on line 22

Laage